sensor_id;sensor_type;location;lat;lon;timestamp;pressure;altitude;pressure_sealevel;temperature;humidity
40998;BME280;26740;45.944;12.480;2023-11-21T00:02:04;100624.59;;;6.96;100.00
40998;BME280;26740;45.944;12.480;2023-11-21T00:04:30;100617.81;;;7.10;100.00
40998;BME280;26740;45.944;12.480;2023-11-21T00:06:55;100611.78;;;7.01;100.00
40998;BME280;26740;45.944;12.480;2023-11-21T00:09:21;100604.47;;;7.07;100.00
40998;BME280;26740;45.944;12.480;2023-11-21T00:11:47;100619.50;;;7.11;100.00
40998;BME280;26740;45.944;12.480;2023-11-21T00:14:12;100604.22;;;7.09;100.00
40998;BME280;26740;45.944;12.480;2023-11-21T00:16:41;100599.69;;;7.14;100.00
40998;BME280;26740;45.944;12.480;2023-11-21T00:19:06;100608.19;;;7.13;100.00
40998;BME280;26740;45.944;12.480;2023-11-21T00:21:32;100614.09;;;7.16;100.00
40998;BME280;26740;45.944;12.480;2023-11-21T00:23:58;100611.38;;;7.28;100.00
40998;BME280;26740;45.944;12.480;2023-11-21T00:26:23;100607.16;;;7.26;100.00
40998;BME280;26740;45.944;12.480;2023-11-21T00:28:50;100602.00;;;7.41;100.00
40998;BME280;26740;45.944;12.480;2023-11-21T00:31:15;100607.56;;;7.53;100.00
40998;BME280;26740;45.944;12.480;2023-11-21T00:33:41;100599.63;;;7.45;100.00
40998;BME280;26740;45.944;12.480;2023-11-21T00:36:07;100592.69;;;7.54;100.00
40998;BME280;26740;45.944;12.480;2023-11-21T00:38:38;100589.19;;;7.58;100.00
40998;BME280;26740;45.944;12.480;2023-11-21T00:41:06;100585.94;;;7.62;100.00
40998;BME280;26740;45.944;12.480;2023-11-21T00:43:32;100578.72;;;7.60;100.00
40998;BME280;26740;45.944;12.480;2023-11-21T00:45:59;100579.84;;;7.71;100.00
40998;BME280;26740;45.944;12.480;2023-11-21T00:48:24;100573.09;;;7.67;100.00
40998;BME280;26740;45.944;12.480;2023-11-21T00:50:50;100570.69;;;7.59;100.00
40998;BME280;26740;45.944;12.480;2023-11-21T00:53:16;100564.47;;;7.52;100.00
40998;BME280;26740;45.944;12.480;2023-11-21T00:55:42;100556.75;;;7.54;100.00
40998;BME280;26740;45.944;12.480;2023-11-21T00:58:07;100548.97;;;7.63;100.00
40998;BME280;26740;45.944;12.480;2023-11-21T01:00:33;100547.75;;;7.70;100.00
40998;BME280;26740;45.944;12.480;2023-11-21T01:02:59;100545.81;;;7.71;100.00
40998;BME280;26740;45.944;12.480;2023-11-21T01:05:25;100539.09;;;7.67;100.00
40998;BME280;26740;45.944;12.480;2023-11-21T01:07:52;100530.56;;;7.56;100.00
40998;BME280;26740;45.944;12.480;2023-11-21T01:10:17;100527.19;;;7.54;100.00
40998;BME280;26740;45.944;12.480;2023-11-21T01:12:43;100507.72;;;7.37;100.00
40998;BME280;26740;45.944;12.480;2023-11-21T01:15:09;100507.38;;;7.34;100.00
40998;BME280;26740;45.944;12.480;2023-11-21T01:17:37;100511.72;;;7.42;100.00
40998;BME280;26740;45.944;12.480;2023-11-21T01:20:04;100503.44;;;7.42;100.00
40998;BME280;26740;45.944;12.480;2023-11-21T01:22:36;100514.59;;;7.47;100.00
40998;BME280;26740;45.944;12.480;2023-11-21T01:25:02;100524.31;;;7.49;100.00
40998;BME280;26740;45.944;12.480;2023-11-21T01:27:30;100509.06;;;7.47;100.00
40998;BME280;26740;45.944;12.480;2023-11-21T01:29:55;100491.44;;;7.36;100.00
40998;BME280;26740;45.944;12.480;2023-11-21T01:32:21;100488.91;;;7.34;100.00
40998;BME280;26740;45.944;12.480;2023-11-21T01:34:47;100479.03;;;7.27;100.00
40998;BME280;26740;45.944;12.480;2023-11-21T01:37:14;100474.22;;;7.34;100.00
40998;BME280;26740;45.944;12.480;2023-11-21T01:39:39;100473.50;;;7.27;100.00
40998;BME280;26740;45.944;12.480;2023-11-21T01:42:05;100471.97;;;7.19;100.00
40998;BME280;26740;45.944;12.480;2023-11-21T01:44:31;100468.94;;;6.97;100.00
40998;BME280;26740;45.944;12.480;2023-11-21T01:46:57;100461.28;;;6.99;100.00
40998;BME280;26740;45.944;12.480;2023-11-21T01:49:23;100465.34;;;7.08;100.00
40998;BME280;26740;45.944;12.480;2023-11-21T01:51:49;100462.81;;;7.07;100.00
40998;BME280;26740;45.944;12.480;2023-11-21T01:54:18;100460.91;;;6.95;100.00
40998;BME280;26740;45.944;12.480;2023-11-21T01:56:47;100455.75;;;6.99;100.00
40998;BME280;26740;45.944;12.480;2023-11-21T01:59:20;100479.63;;;7.05;100.00
40998;BME280;26740;45.944;12.480;2023-11-21T02:01:49;100491.28;;;6.95;100.00
40998;BME280;26740;45.944;12.480;2023-11-21T02:04:21;100502.03;;;6.97;100.00
40998;BME280;26740;45.944;12.480;2023-11-21T02:06:47;100487.94;;;7.17;100.00
40998;BME280;26740;45.944;12.480;2023-11-21T02:09:13;100484.69;;;7.32;100.00
40998;BME280;26740;45.944;12.480;2023-11-21T02:11:40;100488.41;;;7.49;100.00
40998;BME280;26740;45.944;12.480;2023-11-21T02:14:06;100485.75;;;7.54;100.00
40998;BME280;26740;45.944;12.480;2023-11-21T02:16:34;100483.69;;;7.73;100.00
40998;BME280;26740;45.944;12.480;2023-11-21T02:19:01;100486.22;;;7.75;100.00
40998;BME280;26740;45.944;12.480;2023-11-21T02:21:29;100487.03;;;7.87;100.00
40998;BME280;26740;45.944;12.480;2023-11-21T02:23:55;100483.66;;;8.26;100.00
40998;BME280;26740;45.944;12.480;2023-11-21T02:26:21;100481.44;;;8.40;100.00
40998;BME280;26740;45.944;12.480;2023-11-21T02:28:46;100477.19;;;8.20;100.00
40998;BME280;26740;45.944;12.480;2023-11-21T02:31:13;100476.22;;;8.26;100.00
40998;BME280;26740;45.944;12.480;2023-11-21T02:33:38;100473.47;;;8.26;100.00
40998;BME280;26740;45.944;12.480;2023-11-21T02:36:04;100468.03;;;8.31;100.00
40998;BME280;26740;45.944;12.480;2023-11-21T02:38:30;100464.31;;;8.26;100.00
40998;BME280;26740;45.944;12.480;2023-11-21T02:40:57;100456.34;;;8.29;100.00
40998;BME280;26740;45.944;12.480;2023-11-21T02:43:23;100452.84;;;8.34;100.00
40998;BME280;26740;45.944;12.480;2023-11-21T02:45:49;100452.03;;;8.33;100.00
40998;BME280;26740;45.944;12.480;2023-11-21T02:48:14;100437.09;;;8.34;100.00
40998;BME280;26740;45.944;12.480;2023-11-21T02:50:40;100435.28;;;8.40;100.00
40998;BME280;26740;45.944;12.480;2023-11-21T02:53:06;100432.88;;;8.44;100.00
40998;BME280;26740;45.944;12.480;2023-11-21T02:55:31;100433.81;;;8.49;100.00
40998;BME280;26740;45.944;12.480;2023-11-21T02:58:00;100435.34;;;8.74;100.00
40998;BME280;26740;45.944;12.480;2023-11-21T03:00:26;100432.56;;;8.57;100.00
40998;BME280;26740;45.944;12.480;2023-11-21T03:02:53;100432.38;;;8.47;100.00
40998;BME280;26740;45.944;12.480;2023-11-21T03:05:20;100444.03;;;8.49;100.00
40998;BME280;26740;45.944;12.480;2023-11-21T03:07:46;100436.16;;;8.58;100.00
40998;BME280;26740;45.944;12.480;2023-11-21T03:10:12;100440.47;;;8.65;100.00
40998;BME280;26740;45.944;12.480;2023-11-21T03:12:38;100439.78;;;8.75;100.00
40998;BME280;26740;45.944;12.480;2023-11-21T03:15:07;100427.97;;;8.80;100.00
40998;BME280;26740;45.944;12.480;2023-11-21T03:17:33;100432.50;;;8.86;100.00
40998;BME280;26740;45.944;12.480;2023-11-21T03:20:02;100430.66;;;8.91;100.00
40998;BME280;26740;45.944;12.480;2023-11-21T03:22:29;100432.06;;;8.94;100.00
40998;BME280;26740;45.944;12.480;2023-11-21T03:24:54;100428.56;;;8.99;100.00
40998;BME280;26740;45.944;12.480;2023-11-21T03:27:20;100426.88;;;9.15;100.00
40998;BME280;26740;45.944;12.480;2023-11-21T03:29:46;100416.38;;;9.00;100.00
40998;BME280;26740;45.944;12.480;2023-11-21T03:32:12;100410.25;;;8.98;100.00
40998;BME280;26740;45.944;12.480;2023-11-21T03:34:54;100422.78;;;9.00;100.00
40998;BME280;26740;45.944;12.480;2023-11-21T03:37:23;100413.59;;;9.00;100.00
40998;BME280;26740;45.944;12.480;2023-11-21T03:39:50;100417.81;;;9.02;100.00
40998;BME280;26740;45.944;12.480;2023-11-21T03:42:16;100424.88;;;8.93;100.00
40998;BME280;26740;45.944;12.480;2023-11-21T03:44:41;100428.47;;;8.94;100.00
40998;BME280;26740;45.944;12.480;2023-11-21T03:47:07;100432.84;;;8.89;100.00
40998;BME280;26740;45.944;12.480;2023-11-21T03:49:33;100430.81;;;8.85;100.00
40998;BME280;26740;45.944;12.480;2023-11-21T03:51:58;100433.06;;;8.71;100.00
40998;BME280;26740;45.944;12.480;2023-11-21T03:54:24;100428.03;;;8.68;100.00
40998;BME280;26740;45.944;12.480;2023-11-21T03:56:50;100429.97;;;8.67;100.00
40998;BME280;26740;45.944;12.480;2023-11-21T03:59:15;100425.25;;;8.68;100.00
40998;BME280;26740;45.944;12.480;2023-11-21T04:01:41;100434.59;;;8.62;100.00
40998;BME280;26740;45.944;12.480;2023-11-21T04:04:06;100433.38;;;8.58;100.00
40998;BME280;26740;45.944;12.480;2023-11-21T04:06:32;100434.06;;;8.48;100.00
40998;BME280;26740;45.944;12.480;2023-11-21T04:08:58;100436.00;;;8.47;100.00
40998;BME280;26740;45.944;12.480;2023-11-21T04:11:24;100437.78;;;8.42;100.00
40998;BME280;26740;45.944;12.480;2023-11-21T04:13:50;100428.53;;;8.48;100.00
40998;BME280;26740;45.944;12.480;2023-11-21T04:16:15;100424.94;;;8.47;100.00
40998;BME280;26740;45.944;12.480;2023-11-21T04:18:41;100428.28;;;8.66;100.00
40998;BME280;26740;45.944;12.480;2023-11-21T04:21:07;100418.13;;;8.55;100.00
40998;BME280;26740;45.944;12.480;2023-11-21T04:23:33;100415.97;;;8.28;100.00
40998;BME280;26740;45.944;12.480;2023-11-21T04:26:00;100411.34;;;8.17;100.00
40998;BME280;26740;45.944;12.480;2023-11-21T04:28:28;100410.03;;;8.08;100.00
40998;BME280;26740;45.944;12.480;2023-11-21T04:30:54;100409.00;;;7.97;100.00
40998;BME280;26740;45.944;12.480;2023-11-21T04:33:20;100407.00;;;7.92;100.00
40998;BME280;26740;45.944;12.480;2023-11-21T04:35:46;100402.91;;;7.83;100.00
40998;BME280;26740;45.944;12.480;2023-11-21T04:38:12;100400.03;;;7.78;100.00
40998;BME280;26740;45.944;12.480;2023-11-21T04:40:38;100408.50;;;7.71;100.00
40998;BME280;26740;45.944;12.480;2023-11-21T04:43:04;100404.16;;;7.64;100.00
40998;BME280;26740;45.944;12.480;2023-11-21T04:45:29;100401.06;;;7.60;100.00
40998;BME280;26740;45.944;12.480;2023-11-21T04:47:55;100389.88;;;7.55;100.00
40998;BME280;26740;45.944;12.480;2023-11-21T04:50:21;100397.22;;;7.49;100.00
40998;BME280;26740;45.944;12.480;2023-11-21T04:52:47;100392.41;;;7.56;100.00
40998;BME280;26740;45.944;12.480;2023-11-21T04:55:12;100392.31;;;7.51;100.00
40998;BME280;26740;45.944;12.480;2023-11-21T04:57:38;100387.00;;;7.50;100.00
40998;BME280;26740;45.944;12.480;2023-11-21T05:00:08;100390.66;;;7.50;100.00
40998;BME280;26740;45.944;12.480;2023-11-21T05:02:34;100391.47;;;7.51;100.00
40998;BME280;26740;45.944;12.480;2023-11-21T05:05:00;100397.22;;;7.49;100.00
40998;BME280;26740;45.944;12.480;2023-11-21T05:07:26;100401.69;;;7.50;100.00
40998;BME280;26740;45.944;12.480;2023-11-21T05:09:55;100401.69;;;7.50;100.00
40998;BME280;26740;45.944;12.480;2023-11-21T05:12:22;100398.78;;;7.57;100.00
40998;BME280;26740;45.944;12.480;2023-11-21T05:14:51;100404.50;;;7.67;100.00
40998;BME280;26740;45.944;12.480;2023-11-21T05:17:17;100399.09;;;7.72;100.00
40998;BME280;26740;45.944;12.480;2023-11-21T05:19:42;100406.78;;;7.82;100.00
40998;BME280;26740;45.944;12.480;2023-11-21T05:22:11;100396.41;;;7.89;100.00
40998;BME280;26740;45.944;12.480;2023-11-21T05:24:37;100390.13;;;7.94;100.00
40998;BME280;26740;45.944;12.480;2023-11-21T05:27:05;100391.34;;;7.98;100.00
40998;BME280;26740;45.944;12.480;2023-11-21T05:29:30;100391.19;;;8.05;100.00
40998;BME280;26740;45.944;12.480;2023-11-21T05:31:56;100386.25;;;8.07;100.00
40998;BME280;26740;45.944;12.480;2023-11-21T05:34:22;100380.53;;;8.13;100.00
40998;BME280;26740;45.944;12.480;2023-11-21T05:36:50;100384.91;;;8.09;100.00
40998;BME280;26740;45.944;12.480;2023-11-21T05:39:15;100380.53;;;8.13;100.00
40998;BME280;26740;45.944;12.480;2023-11-21T05:41:43;100384.16;;;8.14;100.00
40998;BME280;26740;45.944;12.480;2023-11-21T05:44:08;100388.34;;;8.16;100.00
40998;BME280;26740;45.944;12.480;2023-11-21T05:46:34;100380.91;;;8.17;100.00
40998;BME280;26740;45.944;12.480;2023-11-21T05:49:00;100384.38;;;8.24;100.00
40998;BME280;26740;45.944;12.480;2023-11-21T05:51:26;100381.84;;;8.23;100.00
40998;BME280;26740;45.944;12.480;2023-11-21T05:53:51;100373.78;;;8.21;100.00
40998;BME280;26740;45.944;12.480;2023-11-21T05:56:17;100367.91;;;8.18;100.00
40998;BME280;26740;45.944;12.480;2023-11-21T05:58:43;100373.38;;;8.29;100.00
40998;BME280;26740;45.944;12.480;2023-11-21T06:01:09;100369.63;;;8.35;100.00
40998;BME280;26740;45.944;12.480;2023-11-21T06:03:38;100379.59;;;8.37;100.00
40998;BME280;26740;45.944;12.480;2023-11-21T06:06:04;100377.66;;;8.37;100.00
40998;BME280;26740;45.944;12.480;2023-11-21T06:08:30;100381.75;;;8.34;100.00
40998;BME280;26740;45.944;12.480;2023-11-21T06:10:56;100381.50;;;8.36;100.00
40998;BME280;26740;45.944;12.480;2023-11-21T06:13:21;100389.78;;;8.48;100.00
40998;BME280;26740;45.944;12.480;2023-11-21T06:15:50;100380.78;;;8.41;100.00
40998;BME280;26740;45.944;12.480;2023-11-21T06:18:16;100383.53;;;8.41;100.00
40998;BME280;26740;45.944;12.480;2023-11-21T06:20:45;100387.50;;;8.45;100.00
40998;BME280;26740;45.944;12.480;2023-11-21T06:23:11;100387.97;;;8.42;100.00
40998;BME280;26740;45.944;12.480;2023-11-21T06:25:36;100381.38;;;8.43;100.00
40998;BME280;26740;45.944;12.480;2023-11-21T06:28:02;100381.50;;;8.36;100.00
40998;BME280;26740;45.944;12.480;2023-11-21T06:30:28;100389.91;;;8.41;100.00
40998;BME280;26740;45.944;12.480;2023-11-21T06:32:54;100390.41;;;8.38;100.00
40998;BME280;26740;45.944;12.480;2023-11-21T06:35:21;100392.81;;;8.63;100.00
40998;BME280;26740;45.944;12.480;2023-11-21T06:37:47;100398.81;;;8.43;100.00
40998;BME280;26740;45.944;12.480;2023-11-21T06:40:13;100406.97;;;8.84;100.00
40998;BME280;26740;45.944;12.480;2023-11-21T06:42:40;100404.91;;;8.74;100.00
40998;BME280;26740;45.944;12.480;2023-11-21T06:45:07;100403.38;;;8.49;100.00
40998;BME280;26740;45.944;12.480;2023-11-21T06:47:33;100403.72;;;8.53;100.00
40998;BME280;26740;45.944;12.480;2023-11-21T06:49:59;100414.09;;;8.46;100.00
40998;BME280;26740;45.944;12.480;2023-11-21T06:52:25;100406.75;;;8.40;100.00
40998;BME280;26740;45.944;12.480;2023-11-21T06:54:51;100413.38;;;8.39;100.00
40998;BME280;26740;45.944;12.480;2023-11-21T06:57:17;100416.63;;;8.47;100.00
40998;BME280;26740;45.944;12.480;2023-11-21T06:59:43;100433.03;;;8.54;100.00
40998;BME280;26740;45.944;12.480;2023-11-21T07:02:08;100425.34;;;8.56;100.00
40998;BME280;26740;45.944;12.480;2023-11-21T07:04:37;100426.56;;;8.77;100.00
40998;BME280;26740;45.944;12.480;2023-11-21T07:07:03;100434.69;;;8.67;100.00
40998;BME280;26740;45.944;12.480;2023-11-21T07:09:30;100435.41;;;8.45;100.00
40998;BME280;26740;45.944;12.480;2023-11-21T07:11:56;100447.84;;;8.60;100.00
40998;BME280;26740;45.944;12.480;2023-11-21T07:14:22;100452.28;;;8.78;100.00
40998;BME280;26740;45.944;12.480;2023-11-21T07:16:48;100457.84;;;8.78;100.00
40998;BME280;26740;45.944;12.480;2023-11-21T07:19:14;100443.16;;;8.94;100.00
40998;BME280;26740;45.944;12.480;2023-11-21T07:21:40;100443.66;;;9.08;100.00
40998;BME280;26740;45.944;12.480;2023-11-21T07:24:06;100449.31;;;9.35;100.00
40998;BME280;26740;45.944;12.480;2023-11-21T07:26:33;100455.59;;;9.47;100.00
40998;BME280;26740;45.944;12.480;2023-11-21T07:29:00;100461.28;;;9.58;100.00
40998;BME280;26740;45.944;12.480;2023-11-21T07:31:26;100465.25;;;9.62;100.00
40998;BME280;26740;45.944;12.480;2023-11-21T07:33:52;100452.38;;;9.73;100.00
40998;BME280;26740;45.944;12.480;2023-11-21T07:36:19;100467.81;;;9.68;100.00
40998;BME280;26740;45.944;12.480;2023-11-21T07:38:46;100467.88;;;9.74;100.00
40998;BME280;26740;45.944;12.480;2023-11-21T07:41:12;100475.00;;;9.86;100.00
40998;BME280;26740;45.944;12.480;2023-11-21T07:43:42;100473.97;;;9.93;100.00
40998;BME280;26740;45.944;12.480;2023-11-21T07:46:07;100472.25;;;9.86;100.00
40998;BME280;26740;45.944;12.480;2023-11-21T07:48:34;100472.88;;;9.94;100.00
40998;BME280;26740;45.944;12.480;2023-11-21T07:51:01;100467.91;;;9.96;100.00
40998;BME280;26740;45.944;12.480;2023-11-21T07:53:29;100461.63;;;10.05;100.00
40998;BME280;26740;45.944;12.480;2023-11-21T07:55:58;100470.19;;;9.99;100.00
40998;BME280;26740;45.944;12.480;2023-11-21T07:58:24;100471.00;;;9.99;100.00
40998;BME280;26740;45.944;12.480;2023-11-21T08:00:50;100466.78;;;9.97;100.00
40998;BME280;26740;45.944;12.480;2023-11-21T08:03:16;100468.22;;;9.99;100.00
40998;BME280;26740;45.944;12.480;2023-11-21T08:05:42;100473.25;;;9.80;100.00
40998;BME280;26740;45.944;12.480;2023-11-21T08:08:08;100468.59;;;9.86;100.00
40998;BME280;26740;45.944;12.480;2023-11-21T08:10:34;100465.13;;;9.96;100.00
40998;BME280;26740;45.944;12.480;2023-11-21T08:13:01;100472.47;;;10.07;100.00
40998;BME280;26740;45.944;12.480;2023-11-21T08:15:27;100459.81;;;10.16;100.00
40998;BME280;26740;45.944;12.480;2023-11-21T08:17:52;100467.44;;;10.04;100.00
40998;BME280;26740;45.944;12.480;2023-11-21T08:20:18;100465.34;;;10.11;100.00
40998;BME280;26740;45.944;12.480;2023-11-21T08:22:45;100464.09;;;10.24;100.00
40998;BME280;26740;45.944;12.480;2023-11-21T08:25:10;100466.28;;;10.44;100.00
40998;BME280;26740;45.944;12.480;2023-11-21T08:27:36;100463.50;;;10.44;100.00
40998;BME280;26740;45.944;12.480;2023-11-21T08:30:03;100466.59;;;10.48;100.00
40998;BME280;26740;45.944;12.480;2023-11-21T08:32:29;100463.25;;;10.46;100.00
40998;BME280;26740;45.944;12.480;2023-11-21T08:34:57;100465.66;;;10.37;100.00
40998;BME280;26740;45.944;12.480;2023-11-21T08:37:23;100465.06;;;10.35;100.00
40998;BME280;26740;45.944;12.480;2023-11-21T08:39:49;100456.66;;;10.30;100.00
40998;BME280;26740;45.944;12.480;2023-11-21T08:42:15;100448.28;;;10.24;100.00
40998;BME280;26740;45.944;12.480;2023-11-21T08:44:40;100449.66;;;10.22;100.00
40998;BME280;26740;45.944;12.480;2023-11-21T08:47:07;100449.34;;;10.23;100.00
40998;BME280;26740;45.944;12.480;2023-11-21T08:49:32;100447.44;;;10.24;100.00
40998;BME280;26740;45.944;12.480;2023-11-21T08:51:58;100445.38;;;10.36;100.00
40998;BME280;26740;45.944;12.480;2023-11-21T08:54:25;100443.50;;;10.42;100.00
40998;BME280;26740;45.944;12.480;2023-11-21T08:56:54;100446.84;;;10.44;100.00
40998;BME280;26740;45.944;12.480;2023-11-21T08:59:20;100453.84;;;10.47;100.00
40998;BME280;26740;45.944;12.480;2023-11-21T09:01:46;100462.22;;;10.52;100.00
40998;BME280;26740;45.944;12.480;2023-11-21T09:04:12;100464.13;;;10.51;100.00
40998;BME280;26740;45.944;12.480;2023-11-21T09:06:39;100453.91;;;10.57;100.00
40998;BME280;26740;45.944;12.480;2023-11-21T09:09:05;100455.03;;;10.56;100.00
40998;BME280;26740;45.944;12.480;2023-11-21T09:11:34;100452.88;;;10.63;100.00
40998;BME280;26740;45.944;12.480;2023-11-21T09:14:01;100447.88;;;10.65;100.00
40998;BME280;26740;45.944;12.480;2023-11-21T09:16:26;100456.28;;;10.70;100.00
40998;BME280;26740;45.944;12.480;2023-11-21T09:18:52;100455.19;;;10.71;100.00
40998;BME280;26740;45.944;12.480;2023-11-21T09:21:18;100456.84;;;10.72;100.00
40998;BME280;26740;45.944;12.480;2023-11-21T09:23:46;100452.72;;;10.75;100.00
40998;BME280;26740;45.944;12.480;2023-11-21T09:26:12;100463.22;;;10.73;100.00
40998;BME280;26740;45.944;12.480;2023-11-21T09:28:37;100463.78;;;10.70;100.00
40998;BME280;26740;45.944;12.480;2023-11-21T09:31:05;100462.66;;;10.71;100.00
40998;BME280;26740;45.944;12.480;2023-11-21T09:33:30;100461.50;;;10.67;100.00
40998;BME280;26740;45.944;12.480;2023-11-21T09:35:57;100464.59;;;10.70;100.00
40998;BME280;26740;45.944;12.480;2023-11-21T09:38:23;100462.66;;;10.71;100.00
40998;BME280;26740;45.944;12.480;2023-11-21T09:40:48;100457.41;;;10.74;100.00
40998;BME280;26740;45.944;12.480;2023-11-21T09:43:18;100458.22;;;10.70;100.00
40998;BME280;26740;45.944;12.480;2023-11-21T09:45:48;100446.03;;;10.76;100.00
40998;BME280;26740;45.944;12.480;2023-11-21T09:48:20;100452.72;;;10.75;100.00
40998;BME280;26740;45.944;12.480;2023-11-21T09:50:47;100459.41;;;10.79;100.00
40998;BME280;26740;45.944;12.480;2023-11-21T09:53:19;100456.16;;;10.87;100.00
40998;BME280;26740;45.944;12.480;2023-11-21T09:55:52;100448.41;;;10.89;100.00
40998;BME280;26740;45.944;12.480;2023-11-21T09:58:19;100456.78;;;10.94;100.00
40998;BME280;26740;45.944;12.480;2023-11-21T10:00:47;100456.22;;;10.97;100.00
40998;BME280;26740;45.944;12.480;2023-11-21T10:03:13;100455.44;;;11.02;100.00
40998;BME280;26740;45.944;12.480;2023-11-21T10:05:40;100468.25;;;11.03;100.00
40998;BME280;26740;45.944;12.480;2023-11-21T10:08:09;100451.03;;;11.06;100.00
40998;BME280;26740;45.944;12.480;2023-11-21T10:10:35;100443.88;;;11.15;100.00
40998;BME280;26740;45.944;12.480;2023-11-21T10:13:06;100444.19;;;11.19;100.00
40998;BME280;26740;45.944;12.480;2023-11-21T10:15:35;100447.03;;;11.29;100.00
40998;BME280;26740;45.944;12.480;2023-11-21T10:18:07;100444.31;;;11.39;100.00
40998;BME280;26740;45.944;12.480;2023-11-21T10:20:33;100434.06;;;11.45;100.00
40998;BME280;26740;45.944;12.480;2023-11-21T10:23:00;100432.19;;;11.56;100.00
40998;BME280;26740;45.944;12.480;2023-11-21T10:25:29;100427.72;;;11.55;100.00
40998;BME280;26740;45.944;12.480;2023-11-21T10:27:58;100417.75;;;11.64;100.00
40998;BME280;26740;45.944;12.480;2023-11-21T10:30:34;100412.84;;;11.82;100.00
40998;BME280;26740;45.944;12.480;2023-11-21T10:33:03;100405.72;;;12.01;100.00
40998;BME280;26740;45.944;12.480;2023-11-21T10:35:45;100403.56;;;12.24;100.00
40998;BME280;26740;45.944;12.480;2023-11-21T10:38:13;100405.81;;;12.32;100.00
40998;BME280;26740;45.944;12.480;2023-11-21T10:40:43;100401.09;;;12.43;100.00
40998;BME280;26740;45.944;12.480;2023-11-21T10:43:10;100397.19;;;12.54;100.00
40998;BME280;26740;45.944;12.480;2023-11-21T10:45:39;100393.00;;;12.41;100.00
40998;BME280;26740;45.944;12.480;2023-11-21T10:48:14;100401.88;;;12.28;100.00
40998;BME280;26740;45.944;12.480;2023-11-21T10:50:41;100387.41;;;12.21;100.00
40998;BME280;26740;45.944;12.480;2023-11-21T10:53:07;100389.34;;;12.20;100.00
40998;BME280;26740;45.944;12.480;2023-11-21T10:55:33;100389.09;;;12.42;100.00
40998;BME280;26740;45.944;12.480;2023-11-21T10:58:02;100377.72;;;12.54;100.00
40998;BME280;26740;45.944;12.480;2023-11-21T11:00:32;100377.72;;;12.64;100.00
40998;BME280;26740;45.944;12.480;2023-11-21T11:02:59;100372.69;;;12.71;100.00
40998;BME280;26740;45.944;12.480;2023-11-21T11:05:29;100371.56;;;12.88;100.00
40998;BME280;26740;45.944;12.480;2023-11-21T11:07:59;100371.56;;;12.93;100.00
40998;BME280;26740;45.944;12.480;2023-11-21T11:10:28;100368.22;;;13.01;100.00
40998;BME280;26740;45.944;12.480;2023-11-21T11:12:57;100367.41;;;12.96;100.00
40998;BME280;26740;45.944;12.480;2023-11-21T11:15:25;100357.91;;;12.92;100.00
40998;BME280;26740;45.944;12.480;2023-11-21T11:17:51;100355.13;;;13.02;100.00
40998;BME280;26740;45.944;12.480;2023-11-21T11:20:17;100347.84;;;13.16;100.00
40998;BME280;26740;45.944;12.480;2023-11-21T11:23:13;100354.81;;;13.19;100.00
40998;BME280;26740;45.944;12.480;2023-11-21T11:29:03;100363.47;;;13.22;100.00
40998;BME280;26740;45.944;12.480;2023-11-21T11:31:59;100363.19;;;13.34;100.00
40998;BME280;26740;45.944;12.480;2023-11-21T11:34:35;100371.25;;;13.36;100.00
40998;BME280;26740;45.944;12.480;2023-11-21T11:37:06;100367.06;;;13.33;100.00
40998;BME280;26740;45.944;12.480;2023-11-21T11:39:41;100360.69;;;13.33;100.00
40998;BME280;26740;45.944;12.480;2023-11-21T11:42:16;100362.03;;;13.40;100.00
40998;BME280;26740;45.944;12.480;2023-11-21T11:47:21;100358.97;;;13.47;100.00
40998;BME280;26740;45.944;12.480;2023-11-21T11:49:57;100364.00;;;13.40;100.00
40998;BME280;26740;45.944;12.480;2023-11-21T11:55:09;100362.59;;;13.42;100.00
40998;BME280;26740;45.944;12.480;2023-11-21T11:57:35;100357.81;;;13.53;100.00
40998;BME280;26740;45.944;12.480;2023-11-21T12:00:11;100358.41;;;13.50;100.00
40998;BME280;26740;45.944;12.480;2023-11-21T12:02:46;100363.41;;;13.48;100.00
40998;BME280;26740;45.944;12.480;2023-11-21T12:05:17;100360.06;;;13.46;100.00
40998;BME280;26740;45.944;12.480;2023-11-21T12:07:57;100359.47;;;13.59;100.00
40998;BME280;26740;45.944;12.480;2023-11-21T12:10:27;100350.84;;;13.56;100.00
40998;BME280;26740;45.944;12.480;2023-11-21T12:13:05;100346.97;;;13.46;100.00
40998;BME280;26740;45.944;12.480;2023-11-21T12:15:33;100346.41;;;13.39;100.00
40998;BME280;26740;45.944;12.480;2023-11-21T12:17:59;100358.97;;;13.37;100.00
40998;BME280;26740;45.944;12.480;2023-11-21T12:20:25;100355.91;;;13.38;100.00
40998;BME280;26740;45.944;12.480;2023-11-21T12:22:55;100354.81;;;13.19;100.00
40998;BME280;26740;45.944;12.480;2023-11-21T12:25:23;100353.47;;;12.90;100.00
40998;BME280;26740;45.944;12.480;2023-11-21T12:27:50;100355.44;;;12.69;100.00
40998;BME280;26740;45.944;12.480;2023-11-21T12:30:21;100363.78;;;12.54;100.00
40998;BME280;26740;45.944;12.480;2023-11-21T12:32:51;100357.94;;;12.50;100.00
40998;BME280;26740;45.944;12.480;2023-11-21T12:35:21;100355.13;;;12.45;100.00
40998;BME280;26740;45.944;12.480;2023-11-21T12:37:48;100350.44;;;12.46;100.00
40998;BME280;26740;45.944;12.480;2023-11-21T12:40:15;100360.16;;;12.48;100.00
40998;BME280;26740;45.944;12.480;2023-11-21T12:42:55;100359.63;;;12.51;100.00
40998;BME280;26740;45.944;12.480;2023-11-21T12:47:50;100365.75;;;12.69;100.00